Hartland Point — ZIQS6 — position and weather

sailwx.info

Track history (hours):
 
Tides and Currents Weather Stations Pressure Air Temp Water Temp Dewpoint Dewpoint Depression Visibility Wind Speed Wind Dir Waves Ship Positions

Hartland Point

Last reported at 2018-Apr-24 17:03 UTC. Time now 2018-Apr-27 03:04 UTC.
Position N 37°08' E 012°07'.

Length 193 m; draft 5.7 m.

Type: Cargo ship. MMSI: 235505000.

Date/timePositionNaut miles runAvg speedWind from/ knotsBaromVisibWave heightAir tempDewpointWater temp
2018-Apr-24 17:03N 37°08' E 012°07'114.9
2018-Apr-24 17:00N 37°07' E 012°08'714.9
2018-Apr-24 16:30N 37°05' E 012°17'714.4
2018-Apr-24 16:00N 37°03' E 012°25'714.1
2018-Apr-24 15:31N 37°00' E 012°33'714.4
2018-Apr-24 15:01N 36°58' E 012°42'714.3
2018-Apr-24 14:30N 36°55' E 012°50'714.2
2018-Apr-24 14:00N 36°54' E 012°59'714.4
2018-Apr-24 13:30N 36°50' E 013°07'714.4
2018-Apr-24 13:00N 36°48' E 013°15'714.5
2018-Apr-24 12:30N 36°46' E 013°24'714.5
2018-Apr-24 12:00N 36°43' E 013°33'714.2
2018-Apr-24 11:30N 36°41' E 013°41'714.1
2018-Apr-24 11:00N 36°39' E 013°49'714.0
2018-Apr-24 10:30N 36°35' E 013°57'714.0
2018-Apr-24 10:00N 36°33' E 014°05'714.2
2018-Apr-24 09:30N 36°30' E 014°13'715.1
2018-Apr-24 09:00N 36°28' E 014°22'918.3
2018-Apr-24 08:30N 36°24' E 014°32'714.4
2018-Apr-24 07:59N 36°21' E 014°41'714.3
2018-Apr-24 07:30N 36°19' E 014°49'714.2
2018-Apr-24 06:59N 36°18' E 014°58'714.2
2018-Apr-24 06:30N 36°17' E 015°07'913.8
2018-Apr-24 05:52N 36°16' E 015°17'514.4
2018-Apr-24 05:30N 36°16' E 015°24'714.5
2018-Apr-24 04:59N 36°17' E 015°33'1314.5
2018-Apr-24 04:03N 36°16' E 015°50'314.4
2018-Apr-24 03:49N 36°16' E 015°54'1314.4
2018-Apr-24 02:56N 36°15' E 016°10'  
2018-Apr-21 16:43N 34°38' E 033°04'2 7.9
2018-Apr-21 16:30N 34°39' E 033°03'2 3.1
2018-Apr-21 16:00N 34°39' E 033°01'0 0.0
2018-Apr-21 15:30N 34°39' E 033°01'0 0.0
2018-Apr-21 15:00N 34°39' E 033°01'0 0.0
2018-Apr-21 14:30N 34°39' E 033°01'0 0.0
2018-Apr-21 14:00N 34°39' E 033°01'0 0.0
2018-Apr-21 13:30N 34°39' E 033°01'0 0.0
2018-Apr-21 13:00N 34°39' E 033°01'0 0.0
2018-Apr-21 12:30N 34°39' E 033°01'0 0.0
2018-Apr-21 12:00N 34°39' E 033°01'0 0.0
2018-Apr-21 11:30N 34°39' E 033°01'0 0.0
2018-Apr-21 11:00N 34°39' E 033°01'0 0.0
2018-Apr-21 10:30N 34°39' E 033°01'0 0.0
2018-Apr-21 10:00N 34°39' E 033°01'0 0.0
2018-Apr-21 09:30N 34°39' E 033°01'0 0.0
2018-Apr-21 09:00N 34°39' E 033°01'0 0.0
2018-Apr-21 08:30N 34°39' E 033°01'0 0.0
2018-Apr-21 08:00N 34°39' E 033°01'0 0.0
2018-Apr-21 07:30N 34°39' E 033°01'0 0.0
2018-Apr-21 07:00N 34°39' E 033°01'0 0.0
2018-Apr-21 06:30N 34°39' E 033°01'0 0.0
2018-Apr-21 06:00N 34°39' E 033°01'0 0.0
2018-Apr-21 05:30N 34°39' E 033°01'0 0.0
2018-Apr-21 05:00N 34°39' E 033°01'0 0.0
2018-Apr-21 04:30N 34°39' E 033°01'0 0.0
2018-Apr-21 04:00N 34°39' E 033°01'0 0.2
2018-Apr-21 03:30N 34°39' E 033°01'2 4.1
2018-Apr-21 02:58N 34°39' E 033°04'28411.9
2018-Apr-20 03:06N 29°56' E 032°34'2 7.0
2018-Apr-20 02:44N 29°53' E 032°33'2 9.4
2018-Apr-20 02:30N 29°51' E 032°33'3 6.1
2018-Apr-20 02:00N 29°48' E 032°33'4 5.1
2018-Apr-20 01:17N 29°46' E 032°36'  
Track history (hours):
 
Tides and Currents Weather Stations Pressure Air Temp Water Temp Dewpoint Dewpoint Depression Visibility Wind Speed Wind Dir Waves Ship Positions

Hartland Point

Last reported at 2018-Apr-24 17:03 UTC. Time now 2018-Apr-27 03:04 UTC.
Position N 37°08' E 012°07'.

Length 193 m; draft 5.7 m.

Type: Cargo ship. MMSI: 235505000.

Date/timePositionNaut miles runAvg speedWind from/ knotsBaromVisibWave heightAir tempDewpointWater temp
2018-Apr-24 17:03N 37°08' E 012°07'114.9
2018-Apr-24 17:00N 37°07' E 012°08'714.9
2018-Apr-24 16:30N 37°05' E 012°17'714.4
2018-Apr-24 16:00N 37°03' E 012°25'714.1
2018-Apr-24 15:31N 37°00' E 012°33'714.4
2018-Apr-24 15:01N 36°58' E 012°42'714.3
2018-Apr-24 14:30N 36°55' E 012°50'714.2
2018-Apr-24 14:00N 36°54' E 012°59'714.4
2018-Apr-24 13:30N 36°50' E 013°07'714.4
2018-Apr-24 13:00N 36°48' E 013°15'714.5
2018-Apr-24 12:30N 36°46' E 013°24'714.5
2018-Apr-24 12:00N 36°43' E 013°33'714.2
2018-Apr-24 11:30N 36°41' E 013°41'714.1
2018-Apr-24 11:00N 36°39' E 013°49'714.0
2018-Apr-24 10:30N 36°35' E 013°57'714.0
2018-Apr-24 10:00N 36°33' E 014°05'714.2
2018-Apr-24 09:30N 36°30' E 014°13'715.1
2018-Apr-24 09:00N 36°28' E 014°22'918.3
2018-Apr-24 08:30N 36°24' E 014°32'714.4
2018-Apr-24 07:59N 36°21' E 014°41'714.3
2018-Apr-24 07:30N 36°19' E 014°49'714.2
2018-Apr-24 06:59N 36°18' E 014°58'714.2
2018-Apr-24 06:30N 36°17' E 015°07'913.8
2018-Apr-24 05:52N 36°16' E 015°17'514.4
2018-Apr-24 05:30N 36°16' E 015°24'714.5
2018-Apr-24 04:59N 36°17' E 015°33'1314.5
2018-Apr-24 04:03N 36°16' E 015°50'314.4
2018-Apr-24 03:49N 36°16' E 015°54'1314.4
2018-Apr-24 02:56N 36°15' E 016°10'  
2018-Apr-21 16:43N 34°38' E 033°04'2 7.9
2018-Apr-21 16:30N 34°39' E 033°03'2 3.1
2018-Apr-21 16:00N 34°39' E 033°01'0 0.0
2018-Apr-21 15:30N 34°39' E 033°01'0 0.0
2018-Apr-21 15:00N 34°39' E 033°01'0 0.0
2018-Apr-21 14:30N 34°39' E 033°01'0 0.0
2018-Apr-21 14:00N 34°39' E 033°01'0 0.0
2018-Apr-21 13:30N 34°39' E 033°01'0 0.0
2018-Apr-21 13:00N 34°39' E 033°01'0 0.0
2018-Apr-21 12:30N 34°39' E 033°01'0 0.0
2018-Apr-21 12:00N 34°39' E 033°01'0 0.0
2018-Apr-21 11:30N 34°39' E 033°01'0 0.0
2018-Apr-21 11:00N 34°39' E 033°01'0 0.0
2018-Apr-21 10:30N 34°39' E 033°01'0 0.0
2018-Apr-21 10:00N 34°39' E 033°01'0 0.0
2018-Apr-21 09:30N 34°39' E 033°01'0 0.0
2018-Apr-21 09:00N 34°39' E 033°01'0 0.0
2018-Apr-21 08:30N 34°39' E 033°01'0 0.0
2018-Apr-21 08:00N 34°39' E 033°01'0 0.0
2018-Apr-21 07:30N 34°39' E 033°01'0 0.0
2018-Apr-21 07:00N 34°39' E 033°01'0 0.0
2018-Apr-21 06:30N 34°39' E 033°01'0 0.0
2018-Apr-21 06:00N 34°39' E 033°01'0 0.0
2018-Apr-21 05:30N 34°39' E 033°01'0 0.0
2018-Apr-21 05:00N 34°39' E 033°01'0 0.0
2018-Apr-21 04:30N 34°39' E 033°01'0 0.0
2018-Apr-21 04:00N 34°39' E 033°01'0 0.2
2018-Apr-21 03:30N 34°39' E 033°01'2 4.1
2018-Apr-21 02:58N 34°39' E 033°04'28411.9
2018-Apr-20 03:06N 29°56' E 032°34'2 7.0
2018-Apr-20 02:44N 29°53' E 032°33'2 9.4
2018-Apr-20 02:30N 29°51' E 032°33'3 6.1
2018-Apr-20 02:00N 29°48' E 032°33'4 5.1
2018-Apr-20 01:17N 29°46' E 032°36'  

Dump ship's entire track history